sensor_id;sensor_type;location;lat;lon;timestamp;P1;durP1;ratioP1;P2;durP2;ratioP2
72924;SDS011;61070;50.794;7.054;2023-07-09T00:00:46;11.27;;;6.30;;
72924;SDS011;61070;50.794;7.054;2023-07-09T00:03:13;11.73;;;5.53;;
72924;SDS011;61070;50.794;7.054;2023-07-09T00:05:39;13.65;;;5.75;;
72924;SDS011;61070;50.794;7.054;2023-07-09T00:08:05;10.73;;;6.28;;
72924;SDS011;61070;50.794;7.054;2023-07-09T00:10:30;10.52;;;6.07;;
72924;SDS011;61070;50.794;7.054;2023-07-09T00:12:55;13.38;;;6.20;;
72924;SDS011;61070;50.794;7.054;2023-07-09T00:15:21;13.18;;;6.18;;
72924;SDS011;61070;50.794;7.054;2023-07-09T00:17:46;9.63;;;5.78;;
72924;SDS011;61070;50.794;7.054;2023-07-09T00:20:13;12.15;;;6.25;;
72924;SDS011;61070;50.794;7.054;2023-07-09T00:22:40;12.70;;;6.43;;
72924;SDS011;61070;50.794;7.054;2023-07-09T00:25:07;8.40;;;5.68;;
72924;SDS011;61070;50.794;7.054;2023-07-09T00:27:38;12.52;;;6.22;;
72924;SDS011;61070;50.794;7.054;2023-07-09T00:30:05;16.30;;;6.32;;
72924;SDS011;61070;50.794;7.054;2023-07-09T00:32:37;9.45;;;5.80;;
72924;SDS011;61070;50.794;7.054;2023-07-09T00:35:08;11.43;;;5.80;;
72924;SDS011;61070;50.794;7.054;2023-07-09T00:37:34;11.43;;;6.18;;
72924;SDS011;61070;50.794;7.054;2023-07-09T00:39:59;14.27;;;6.80;;
72924;SDS011;61070;50.794;7.054;2023-07-09T00:42:25;13.00;;;6.37;;
72924;SDS011;61070;50.794;7.054;2023-07-09T00:44:51;10.55;;;5.75;;
72924;SDS011;61070;50.794;7.054;2023-07-09T00:47:18;13.60;;;6.60;;
72924;SDS011;61070;50.794;7.054;2023-07-09T00:49:45;11.80;;;6.47;;
72924;SDS011;61070;50.794;7.054;2023-07-09T00:52:21;14.23;;;5.72;;
72924;SDS011;61070;50.794;7.054;2023-07-09T00:54:53;11.80;;;6.50;;
72924;SDS011;61070;50.794;7.054;2023-07-09T00:57:20;10.45;;;5.97;;
72924;SDS011;61070;50.794;7.054;2023-07-09T00:59:53;12.75;;;6.00;;
72924;SDS011;61070;50.794;7.054;2023-07-09T01:02:22;13.55;;;6.20;;
72924;SDS011;61070;50.794;7.054;2023-07-09T01:04:51;16.42;;;7.28;;
72924;SDS011;61070;50.794;7.054;2023-07-09T01:07:25;10.13;;;5.22;;
72924;SDS011;61070;50.794;7.054;2023-07-09T01:09:52;12.13;;;5.18;;
72924;SDS011;61070;50.794;7.054;2023-07-09T01:12:18;10.77;;;5.93;;
72924;SDS011;61070;50.794;7.054;2023-07-09T01:14:45;13.15;;;6.95;;
72924;SDS011;61070;50.794;7.054;2023-07-09T01:17:13;10.48;;;5.93;;
72924;SDS011;61070;50.794;7.054;2023-07-09T01:19:40;14.30;;;6.65;;
72924;SDS011;61070;50.794;7.054;2023-07-09T01:22:11;11.68;;;6.75;;
72924;SDS011;61070;50.794;7.054;2023-07-09T01:27:22;10.85;;;5.70;;
72924;SDS011;61070;50.794;7.054;2023-07-09T01:29:51;9.65;;;5.93;;
72924;SDS011;61070;50.794;7.054;2023-07-09T01:32:18;16.23;;;6.68;;
72924;SDS011;61070;50.794;7.054;2023-07-09T01:34:49;9.07;;;5.75;;
72924;SDS011;61070;50.794;7.054;2023-07-09T01:37:18;12.90;;;6.80;;
72924;SDS011;61070;50.794;7.054;2023-07-09T01:39:46;11.93;;;6.07;;
72924;SDS011;61070;50.794;7.054;2023-07-09T01:42:12;8.50;;;6.13;;
72924;SDS011;61070;50.794;7.054;2023-07-09T01:44:38;13.02;;;6.65;;
72924;SDS011;61070;50.794;7.054;2023-07-09T01:47:05;10.77;;;6.50;;
72924;SDS011;61070;50.794;7.054;2023-07-09T01:49:30;14.50;;;6.78;;
72924;SDS011;61070;50.794;7.054;2023-07-09T01:51:58;11.95;;;6.22;;
72924;SDS011;61070;50.794;7.054;2023-07-09T01:54:25;13.63;;;6.80;;
72924;SDS011;61070;50.794;7.054;2023-07-09T01:56:52;11.15;;;5.82;;
72924;SDS011;61070;50.794;7.054;2023-07-09T01:59:21;12.30;;;6.60;;
72924;SDS011;61070;50.794;7.054;2023-07-09T02:01:47;13.13;;;6.35;;
72924;SDS011;61070;50.794;7.054;2023-07-09T02:04:12;14.82;;;6.53;;
72924;SDS011;61070;50.794;7.054;2023-07-09T02:06:38;12.77;;;6.35;;
72924;SDS011;61070;50.794;7.054;2023-07-09T02:09:03;16.25;;;6.38;;
72924;SDS011;61070;50.794;7.054;2023-07-09T02:11:28;13.00;;;6.30;;
72924;SDS011;61070;50.794;7.054;2023-07-09T02:13:53;14.50;;;6.78;;
72924;SDS011;61070;50.794;7.054;2023-07-09T02:16:19;11.07;;;6.47;;
72924;SDS011;61070;50.794;7.054;2023-07-09T02:18:44;12.00;;;6.10;;
72924;SDS011;61070;50.794;7.054;2023-07-09T02:21:09;11.95;;;6.00;;
72924;SDS011;61070;50.794;7.054;2023-07-09T02:23:34;13.85;;;6.50;;
72924;SDS011;61070;50.794;7.054;2023-07-09T02:26:00;11.02;;;6.32;;
72924;SDS011;61070;50.794;7.054;2023-07-09T02:28:25;10.88;;;5.95;;
72924;SDS011;61070;50.794;7.054;2023-07-09T02:30:50;8.77;;;5.57;;
72924;SDS011;61070;50.794;7.054;2023-07-09T02:33:16;12.68;;;5.80;;
72924;SDS011;61070;50.794;7.054;2023-07-09T02:35:41;12.35;;;6.30;;
72924;SDS011;61070;50.794;7.054;2023-07-09T02:38:07;11.75;;;5.90;;
72924;SDS011;61070;50.794;7.054;2023-07-09T02:40:32;15.07;;;6.07;;
72924;SDS011;61070;50.794;7.054;2023-07-09T02:42:58;12.38;;;6.10;;
72924;SDS011;61070;50.794;7.054;2023-07-09T02:45:24;15.98;;;6.07;;
72924;SDS011;61070;50.794;7.054;2023-07-09T02:47:49;10.48;;;6.15;;
72924;SDS011;61070;50.794;7.054;2023-07-09T02:50:14;13.82;;;6.05;;
72924;SDS011;61070;50.794;7.054;2023-07-09T02:52:40;11.05;;;6.30;;
72924;SDS011;61070;50.794;7.054;2023-07-09T02:55:07;11.93;;;6.93;;
72924;SDS011;61070;50.794;7.054;2023-07-09T02:57:32;12.05;;;6.00;;
72924;SDS011;61070;50.794;7.054;2023-07-09T02:59:58;13.10;;;5.95;;
72924;SDS011;61070;50.794;7.054;2023-07-09T03:02:23;12.30;;;5.53;;
72924;SDS011;61070;50.794;7.054;2023-07-09T03:04:48;11.55;;;6.80;;
72924;SDS011;61070;50.794;7.054;2023-07-09T03:07:13;14.50;;;5.95;;
72924;SDS011;61070;50.794;7.054;2023-07-09T03:09:39;10.65;;;5.63;;
72924;SDS011;61070;50.794;7.054;2023-07-09T03:12:04;14.73;;;6.22;;
72924;SDS011;61070;50.794;7.054;2023-07-09T03:14:30;13.05;;;6.30;;
72924;SDS011;61070;50.794;7.054;2023-07-09T03:16:55;7.88;;;5.60;;
72924;SDS011;61070;50.794;7.054;2023-07-09T03:19:21;10.10;;;5.47;;
72924;SDS011;61070;50.794;7.054;2023-07-09T03:21:47;19.30;;;6.97;;
72924;SDS011;61070;50.794;7.054;2023-07-09T03:24:13;12.77;;;5.75;;
72924;SDS011;61070;50.794;7.054;2023-07-09T03:26:40;12.00;;;5.68;;
72924;SDS011;61070;50.794;7.054;2023-07-09T03:29:05;12.20;;;6.40;;
72924;SDS011;61070;50.794;7.054;2023-07-09T03:31:30;13.13;;;6.13;;
72924;SDS011;61070;50.794;7.054;2023-07-09T03:33:59;9.70;;;5.13;;
72924;SDS011;61070;50.794;7.054;2023-07-09T03:36:25;10.75;;;6.25;;
72924;SDS011;61070;50.794;7.054;2023-07-09T03:38:50;9.05;;;5.95;;
72924;SDS011;61070;50.794;7.054;2023-07-09T03:41:15;11.77;;;6.47;;
72924;SDS011;61070;50.794;7.054;2023-07-09T03:43:41;10.73;;;6.03;;
72924;SDS011;61070;50.794;7.054;2023-07-09T03:46:06;14.43;;;7.05;;
72924;SDS011;61070;50.794;7.054;2023-07-09T03:48:31;11.65;;;6.40;;
72924;SDS011;61070;50.794;7.054;2023-07-09T03:50:57;15.82;;;6.22;;
72924;SDS011;61070;50.794;7.054;2023-07-09T03:53:22;9.65;;;6.38;;
72924;SDS011;61070;50.794;7.054;2023-07-09T03:55:51;17.02;;;6.70;;
72924;SDS011;61070;50.794;7.054;2023-07-09T03:58:17;10.80;;;5.93;;
72924;SDS011;61070;50.794;7.054;2023-07-09T04:00:43;14.00;;;6.65;;
72924;SDS011;61070;50.794;7.054;2023-07-09T04:03:09;10.07;;;6.25;;
72924;SDS011;61070;50.794;7.054;2023-07-09T04:05:35;11.45;;;5.70;;
72924;SDS011;61070;50.794;7.054;2023-07-09T04:08:00;12.68;;;6.45;;
72924;SDS011;61070;50.794;7.054;2023-07-09T04:10:26;11.25;;;6.22;;
72924;SDS011;61070;50.794;7.054;2023-07-09T04:12:51;11.73;;;6.72;;
72924;SDS011;61070;50.794;7.054;2023-07-09T04:15:16;10.38;;;6.30;;
72924;SDS011;61070;50.794;7.054;2023-07-09T04:17:42;14.55;;;6.35;;
72924;SDS011;61070;50.794;7.054;2023-07-09T04:20:07;9.15;;;5.32;;
72924;SDS011;61070;50.794;7.054;2023-07-09T04:22:35;16.08;;;5.65;;
72924;SDS011;61070;50.794;7.054;2023-07-09T04:25:01;9.25;;;5.75;;
72924;SDS011;61070;50.794;7.054;2023-07-09T04:27:28;12.50;;;6.20;;
72924;SDS011;61070;50.794;7.054;2023-07-09T04:29:53;12.93;;;6.70;;
72924;SDS011;61070;50.794;7.054;2023-07-09T04:32:19;13.88;;;6.05;;
72924;SDS011;61070;50.794;7.054;2023-07-09T04:34:45;11.40;;;6.35;;
72924;SDS011;61070;50.794;7.054;2023-07-09T04:37:11;10.02;;;6.18;;
72924;SDS011;61070;50.794;7.054;2023-07-09T04:39:42;18.45;;;6.93;;
72924;SDS011;61070;50.794;7.054;2023-07-09T04:42:10;11.15;;;5.30;;
72924;SDS011;61070;50.794;7.054;2023-07-09T04:44:37;11.52;;;6.43;;
72924;SDS011;61070;50.794;7.054;2023-07-09T04:47:03;10.38;;;6.13;;
72924;SDS011;61070;50.794;7.054;2023-07-09T04:49:28;12.75;;;6.60;;
72924;SDS011;61070;50.794;7.054;2023-07-09T04:51:53;14.00;;;5.68;;
72924;SDS011;61070;50.794;7.054;2023-07-09T04:54:21;9.50;;;6.43;;
72924;SDS011;61070;50.794;7.054;2023-07-09T04:56:47;16.17;;;6.43;;
72924;SDS011;61070;50.794;7.054;2023-07-09T04:59:13;13.05;;;6.30;;
72924;SDS011;61070;50.794;7.054;2023-07-09T05:01:38;10.63;;;5.72;;
72924;SDS011;61070;50.794;7.054;2023-07-09T05:04:04;13.70;;;6.95;;
72924;SDS011;61070;50.794;7.054;2023-07-09T05:06:29;12.85;;;6.60;;
72924;SDS011;61070;50.794;7.054;2023-07-09T05:08:55;9.05;;;6.38;;
72924;SDS011;61070;50.794;7.054;2023-07-09T05:11:20;12.43;;;6.80;;
72924;SDS011;61070;50.794;7.054;2023-07-09T05:13:45;10.88;;;6.20;;
72924;SDS011;61070;50.794;7.054;2023-07-09T05:16:11;10.13;;;5.50;;
72924;SDS011;61070;50.794;7.054;2023-07-09T05:18:36;12.32;;;6.32;;
72924;SDS011;61070;50.794;7.054;2023-07-09T05:21:01;13.65;;;5.85;;
72924;SDS011;61070;50.794;7.054;2023-07-09T05:23:27;11.07;;;6.15;;
72924;SDS011;61070;50.794;7.054;2023-07-09T05:25:56;11.00;;;5.78;;
72924;SDS011;61070;50.794;7.054;2023-07-09T05:30:48;13.93;;;5.93;;
72924;SDS011;61070;50.794;7.054;2023-07-09T05:33:13;9.80;;;6.20;;
72924;SDS011;61070;50.794;7.054;2023-07-09T05:35:38;12.07;;;6.60;;
72924;SDS011;61070;50.794;7.054;2023-07-09T05:38:04;12.95;;;5.90;;
72924;SDS011;61070;50.794;7.054;2023-07-09T05:40:29;9.30;;;5.50;;
72924;SDS011;61070;50.794;7.054;2023-07-09T05:42:55;9.68;;;6.13;;
72924;SDS011;61070;50.794;7.054;2023-07-09T05:45:20;11.98;;;6.30;;
72924;SDS011;61070;50.794;7.054;2023-07-09T05:47:45;13.50;;;6.60;;
72924;SDS011;61070;50.794;7.054;2023-07-09T05:50:11;12.55;;;5.88;;
72924;SDS011;61070;50.794;7.054;2023-07-09T05:52:36;10.98;;;6.20;;
72924;SDS011;61070;50.794;7.054;2023-07-09T05:55:01;13.02;;;6.13;;
72924;SDS011;61070;50.794;7.054;2023-07-09T05:57:27;10.18;;;5.40;;
72924;SDS011;61070;50.794;7.054;2023-07-09T05:59:52;9.50;;;6.32;;
72924;SDS011;61070;50.794;7.054;2023-07-09T06:02:18;10.13;;;5.87;;
72924;SDS011;61070;50.794;7.054;2023-07-09T06:04:44;11.93;;;6.03;;
72924;SDS011;61070;50.794;7.054;2023-07-09T06:07:10;14.88;;;7.07;;
72924;SDS011;61070;50.794;7.054;2023-07-09T06:09:37;9.65;;;6.25;;
72924;SDS011;61070;50.794;7.054;2023-07-09T06:12:03;16.50;;;6.55;;
72924;SDS011;61070;50.794;7.054;2023-07-09T06:14:29;14.10;;;6.05;;
72924;SDS011;61070;50.794;7.054;2023-07-09T06:16:56;11.32;;;5.80;;
72924;SDS011;61070;50.794;7.054;2023-07-09T06:19:22;13.07;;;6.43;;
72924;SDS011;61070;50.794;7.054;2023-07-09T06:21:48;13.35;;;6.22;;
72924;SDS011;61070;50.794;7.054;2023-07-09T06:24:13;12.15;;;5.93;;
72924;SDS011;61070;50.794;7.054;2023-07-09T06:26:38;9.35;;;5.57;;
72924;SDS011;61070;50.794;7.054;2023-07-09T06:29:05;13.00;;;5.57;;
72924;SDS011;61070;50.794;7.054;2023-07-09T06:31:30;9.18;;;5.43;;
72924;SDS011;61070;50.794;7.054;2023-07-09T06:33:56;10.65;;;5.82;;
72924;SDS011;61070;50.794;7.054;2023-07-09T06:36:21;11.32;;;5.90;;
72924;SDS011;61070;50.794;7.054;2023-07-09T06:38:47;8.77;;;5.35;;
72924;SDS011;61070;50.794;7.054;2023-07-09T06:41:13;13.13;;;5.78;;
72924;SDS011;61070;50.794;7.054;2023-07-09T06:43:39;15.48;;;6.05;;
72924;SDS011;61070;50.794;7.054;2023-07-09T06:46:04;11.63;;;5.38;;
72924;SDS011;61070;50.794;7.054;2023-07-09T06:48:31;9.88;;;5.75;;
72924;SDS011;61070;50.794;7.054;2023-07-09T06:50:57;12.55;;;5.75;;
72924;SDS011;61070;50.794;7.054;2023-07-09T06:53:24;12.38;;;5.28;;
72924;SDS011;61070;50.794;7.054;2023-07-09T06:55:50;13.15;;;5.65;;
72924;SDS011;61070;50.794;7.054;2023-07-09T06:58:20;13.63;;;5.70;;
72924;SDS011;61070;50.794;7.054;2023-07-09T07:00:47;10.25;;;5.70;;
72924;SDS011;61070;50.794;7.054;2023-07-09T07:03:14;15.18;;;6.03;;
72924;SDS011;61070;50.794;7.054;2023-07-09T07:05:43;10.70;;;5.50;;
72924;SDS011;61070;50.794;7.054;2023-07-09T07:08:22;13.90;;;5.93;;
72924;SDS011;61070;50.794;7.054;2023-07-09T07:10:50;10.18;;;5.72;;
72924;SDS011;61070;50.794;7.054;2023-07-09T07:13:26;7.80;;;5.30;;
72924;SDS011;61070;50.794;7.054;2023-07-09T07:15:52;12.50;;;6.07;;
72924;SDS011;61070;50.794;7.054;2023-07-09T07:18:17;12.30;;;5.77;;
72924;SDS011;61070;50.794;7.054;2023-07-09T07:20:42;10.13;;;5.63;;
72924;SDS011;61070;50.794;7.054;2023-07-09T07:23:07;6.93;;;4.65;;
72924;SDS011;61070;50.794;7.054;2023-07-09T07:25:33;7.77;;;5.30;;
72924;SDS011;61070;50.794;7.054;2023-07-09T07:27:58;10.35;;;5.60;;
72924;SDS011;61070;50.794;7.054;2023-07-09T07:30:23;11.50;;;5.57;;
72924;SDS011;61070;50.794;7.054;2023-07-09T07:32:49;13.63;;;5.88;;
72924;SDS011;61070;50.794;7.054;2023-07-09T07:35:14;11.75;;;5.32;;
72924;SDS011;61070;50.794;7.054;2023-07-09T07:37:40;11.95;;;6.53;;
72924;SDS011;61070;50.794;7.054;2023-07-09T07:40:06;8.95;;;5.20;;
72924;SDS011;61070;50.794;7.054;2023-07-09T07:42:32;8.77;;;5.50;;
72924;SDS011;61070;50.794;7.054;2023-07-09T07:44:58;10.43;;;5.35;;
72924;SDS011;61070;50.794;7.054;2023-07-09T07:47:23;9.98;;;4.93;;
72924;SDS011;61070;50.794;7.054;2023-07-09T07:49:49;9.95;;;4.90;;
72924;SDS011;61070;50.794;7.054;2023-07-09T07:52:14;12.90;;;5.18;;
72924;SDS011;61070;50.794;7.054;2023-07-09T07:54:40;11.60;;;5.95;;
72924;SDS011;61070;50.794;7.054;2023-07-09T07:57:05;13.20;;;5.97;;
72924;SDS011;61070;50.794;7.054;2023-07-09T07:59:30;11.70;;;5.70;;
72924;SDS011;61070;50.794;7.054;2023-07-09T08:01:59;15.48;;;5.55;;
72924;SDS011;61070;50.794;7.054;2023-07-09T08:04:25;16.55;;;5.10;;
72924;SDS011;61070;50.794;7.054;2023-07-09T08:06:50;12.85;;;6.20;;
72924;SDS011;61070;50.794;7.054;2023-07-09T08:09:17;10.13;;;5.45;;
72924;SDS011;61070;50.794;7.054;2023-07-09T08:11:42;8.32;;;5.00;;
72924;SDS011;61070;50.794;7.054;2023-07-09T08:14:08;12.23;;;5.55;;
72924;SDS011;61070;50.794;7.054;2023-07-09T08:16:34;9.60;;;5.88;;
72924;SDS011;61070;50.794;7.054;2023-07-09T08:19:00;12.82;;;5.80;;
72924;SDS011;61070;50.794;7.054;2023-07-09T08:21:25;14.57;;;5.37;;
72924;SDS011;61070;50.794;7.054;2023-07-09T08:23:50;7.43;;;4.85;;
72924;SDS011;61070;50.794;7.054;2023-07-09T08:26:15;8.87;;;5.70;;
72924;SDS011;61070;50.794;7.054;2023-07-09T08:28:41;12.30;;;6.15;;
72924;SDS011;61070;50.794;7.054;2023-07-09T08:31:06;9.05;;;5.13;;
72924;SDS011;61070;50.794;7.054;2023-07-09T08:33:31;13.45;;;5.68;;
72924;SDS011;61070;50.794;7.054;2023-07-09T08:35:57;10.43;;;4.63;;
72924;SDS011;61070;50.794;7.054;2023-07-09T08:38:22;11.77;;;5.22;;
72924;SDS011;61070;50.794;7.054;2023-07-09T08:46:16;6.53;;;4.68;;
72924;SDS011;61070;50.794;7.054;2023-07-09T08:48:51;11.15;;;5.28;;
72924;SDS011;61070;50.794;7.054;2023-07-09T08:51:22;13.02;;;5.60;;
72924;SDS011;61070;50.794;7.054;2023-07-09T08:54:00;8.73;;;4.90;;
72924;SDS011;61070;50.794;7.054;2023-07-09T08:56:27;10.55;;;4.90;;
72924;SDS011;61070;50.794;7.054;2023-07-09T08:58:55;8.65;;;5.35;;
72924;SDS011;61070;50.794;7.054;2023-07-09T09:01:34;11.05;;;4.80;;
72924;SDS011;61070;50.794;7.054;2023-07-09T09:04:15;9.70;;;5.05;;
72924;SDS011;61070;50.794;7.054;2023-07-09T09:06:50;12.70;;;5.10;;
72924;SDS011;61070;50.794;7.054;2023-07-09T09:09:25;10.45;;;4.88;;
72924;SDS011;61070;50.794;7.054;2023-07-09T09:12:15;8.82;;;4.35;;
72924;SDS011;61070;50.794;7.054;2023-07-09T09:14:48;9.30;;;5.07;;
72924;SDS011;61070;50.794;7.054;2023-07-09T09:17:23;11.20;;;5.15;;
72924;SDS011;61070;50.794;7.054;2023-07-09T09:19:55;11.95;;;5.30;;
72924;SDS011;61070;50.794;7.054;2023-07-09T09:22:28;9.18;;;5.13;;
72924;SDS011;61070;50.794;7.054;2023-07-09T09:25:15;5.78;;;4.43;;
72924;SDS011;61070;50.794;7.054;2023-07-09T09:27:41;10.98;;;5.30;;
72924;SDS011;61070;50.794;7.054;2023-07-09T09:30:18;13.18;;;5.57;;
72924;SDS011;61070;50.794;7.054;2023-07-09T09:33:07;13.20;;;5.60;;
72924;SDS011;61070;50.794;7.054;2023-07-09T09:35:32;6.00;;;4.38;;
72924;SDS011;61070;50.794;7.054;2023-07-09T09:37:59;9.25;;;5.03;;
72924;SDS011;61070;50.794;7.054;2023-07-09T09:40:25;7.68;;;4.85;;
72924;SDS011;61070;50.794;7.054;2023-07-09T09:42:53;13.13;;;5.32;;
72924;SDS011;61070;50.794;7.054;2023-07-09T09:45:20;10.43;;;4.85;;
72924;SDS011;61070;50.794;7.054;2023-07-09T09:47:47;7.82;;;4.57;;
72924;SDS011;61070;50.794;7.054;2023-07-09T09:50:13;8.25;;;4.85;;
72924;SDS011;61070;50.794;7.054;2023-07-09T09:52:39;11.40;;;4.80;;
72924;SDS011;61070;50.794;7.054;2023-07-09T09:55:13;6.30;;;4.20;;
72924;SDS011;61070;50.794;7.054;2023-07-09T09:57:46;9.88;;;4.57;;
72924;SDS011;61070;50.794;7.054;2023-07-09T10:00:13;9.75;;;4.55;;
72924;SDS011;61070;50.794;7.054;2023-07-09T10:02:41;8.70;;;5.03;;
72924;SDS011;61070;50.794;7.054;2023-07-09T10:05:15;10.20;;;4.53;;
72924;SDS011;61070;50.794;7.054;2023-07-09T10:07:46;7.32;;;4.70;;
72924;SDS011;61070;50.794;7.054;2023-07-09T10:10:13;11.30;;;5.38;;
72924;SDS011;61070;50.794;7.054;2023-07-09T10:12:44;11.18;;;4.68;;
72924;SDS011;61070;50.794;7.054;2023-07-09T10:15:18;12.88;;;4.72;;
72924;SDS011;61070;50.794;7.054;2023-07-09T10:28:51;10.65;;;4.15;;
72924;SDS011;61070;50.794;7.054;2023-07-09T10:39:04;9.55;;;4.03;;
72924;SDS011;61070;50.794;7.054;2023-07-09T10:41:34;8.07;;;4.50;;
72924;SDS011;61070;50.794;7.054;2023-07-09T10:44:46;12.10;;;4.50;;
72924;SDS011;61070;50.794;7.054;2023-07-09T10:46:47;8.70;;;4.45;;
72924;SDS011;61070;50.794;7.054;2023-07-09T10:49:14;8.95;;;4.88;;
72924;SDS011;61070;50.794;7.054;2023-07-09T10:51:43;6.55;;;4.38;;
72924;SDS011;61070;50.794;7.054;2023-07-09T10:54:24;7.32;;;4.22;;
72924;SDS011;61070;50.794;7.054;2023-07-09T10:57:03;7.30;;;4.30;;
72924;SDS011;61070;50.794;7.054;2023-07-09T10:59:42;5.32;;;4.22;;
72924;SDS011;61070;50.794;7.054;2023-07-09T11:07:36;7.03;;;4.47;;
72924;SDS011;61070;50.794;7.054;2023-07-09T11:10:44;11.95;;;4.10;;
72924;SDS011;61070;50.794;7.054;2023-07-09T11:13:30;6.60;;;4.20;;
72924;SDS011;61070;50.794;7.054;2023-07-09T11:16:02;10.38;;;4.65;;
72924;SDS011;61070;50.794;7.054;2023-07-09T11:18:30;10.02;;;4.45;;
72924;SDS011;61070;50.794;7.054;2023-07-09T11:21:14;8.80;;;4.15;;
72924;SDS011;61070;50.794;7.054;2023-07-09T11:28:53;7.20;;;4.25;;
72924;SDS011;61070;50.794;7.054;2023-07-09T11:31:40;6.22;;;3.63;;
72924;SDS011;61070;50.794;7.054;2023-07-09T11:34:09;9.23;;;4.40;;
72924;SDS011;61070;50.794;7.054;2023-07-09T11:36:56;13.73;;;5.18;;
72924;SDS011;61070;50.794;7.054;2023-07-09T11:39:31;7.28;;;4.25;;
72924;SDS011;61070;50.794;7.054;2023-07-09T11:41:57;7.30;;;3.97;;
72924;SDS011;61070;50.794;7.054;2023-07-09T11:44:32;6.05;;;3.95;;
72924;SDS011;61070;50.794;7.054;2023-07-09T11:47:01;9.95;;;4.00;;
72924;SDS011;61070;50.794;7.054;2023-07-09T11:49:42;11.52;;;4.93;;
72924;SDS011;61070;50.794;7.054;2023-07-09T11:52:18;7.53;;;4.03;;
72924;SDS011;61070;50.794;7.054;2023-07-09T11:54:51;6.90;;;3.80;;
72924;SDS011;61070;50.794;7.054;2023-07-09T11:57:17;9.85;;;3.70;;
72924;SDS011;61070;50.794;7.054;2023-07-09T11:59:43;8.00;;;4.00;;
72924;SDS011;61070;50.794;7.054;2023-07-09T12:02:13;6.55;;;4.35;;
72924;SDS011;61070;50.794;7.054;2023-07-09T12:04:41;6.75;;;4.38;;
72924;SDS011;61070;50.794;7.054;2023-07-09T12:07:09;9.00;;;4.35;;
72924;SDS011;61070;50.794;7.054;2023-07-09T12:09:39;5.82;;;3.58;;
72924;SDS011;61070;50.794;7.054;2023-07-09T12:12:44;7.20;;;4.43;;
72924;SDS011;61070;50.794;7.054;2023-07-09T12:15:12;9.52;;;4.28;;
72924;SDS011;61070;50.794;7.054;2023-07-09T12:17:42;9.38;;;3.97;;
72924;SDS011;61070;50.794;7.054;2023-07-09T12:20:07;8.37;;;3.90;;
72924;SDS011;61070;50.794;7.054;2023-07-09T12:22:35;8.88;;;4.32;;
72924;SDS011;61070;50.794;7.054;2023-07-09T12:25:00;10.47;;;4.40;;
72924;SDS011;61070;50.794;7.054;2023-07-09T12:27:26;9.00;;;4.03;;
72924;SDS011;61070;50.794;7.054;2023-07-09T12:29:55;8.15;;;4.43;;
72924;SDS011;61070;50.794;7.054;2023-07-09T12:32:21;6.93;;;4.28;;
72924;SDS011;61070;50.794;7.054;2023-07-09T12:34:51;8.77;;;4.25;;
72924;SDS011;61070;50.794;7.054;2023-07-09T12:37:21;7.97;;;4.45;;
72924;SDS011;61070;50.794;7.054;2023-07-09T12:39:50;7.70;;;4.50;;
72924;SDS011;61070;50.794;7.054;2023-07-09T12:42:17;8.73;;;4.13;;
72924;SDS011;61070;50.794;7.054;2023-07-09T12:44:43;6.95;;;4.13;;
72924;SDS011;61070;50.794;7.054;2023-07-09T12:47:12;7.07;;;3.90;;
72924;SDS011;61070;50.794;7.054;2023-07-09T12:49:40;11.00;;;4.13;;
72924;SDS011;61070;50.794;7.054;2023-07-09T12:52:10;9.35;;;4.50;;
72924;SDS011;61070;50.794;7.054;2023-07-09T12:54:41;9.00;;;3.78;;
72924;SDS011;61070;50.794;7.054;2023-07-09T12:57:13;7.77;;;3.90;;
72924;SDS011;61070;50.794;7.054;2023-07-09T12:59:42;9.82;;;3.85;;
72924;SDS011;61070;50.794;7.054;2023-07-09T13:02:14;8.88;;;4.15;;
72924;SDS011;61070;50.794;7.054;2023-07-09T13:04:42;5.95;;;4.47;;
72924;SDS011;61070;50.794;7.054;2023-07-09T13:09:48;7.18;;;3.88;;
72924;SDS011;61070;50.794;7.054;2023-07-09T13:12:14;9.90;;;4.43;;
72924;SDS011;61070;50.794;7.054;2023-07-09T13:14:39;10.50;;;3.93;;
72924;SDS011;61070;50.794;7.054;2023-07-09T13:17:05;7.72;;;3.75;;
72924;SDS011;61070;50.794;7.054;2023-07-09T13:19:32;8.18;;;4.30;;
72924;SDS011;61070;50.794;7.054;2023-07-09T13:21:58;8.00;;;3.97;;
72924;SDS011;61070;50.794;7.054;2023-07-09T13:24:24;7.70;;;3.95;;
72924;SDS011;61070;50.794;7.054;2023-07-09T13:26:51;6.47;;;3.75;;
72924;SDS011;61070;50.794;7.054;2023-07-09T13:29:17;6.70;;;3.83;;
72924;SDS011;61070;50.794;7.054;2023-07-09T13:31:44;8.10;;;3.97;;
72924;SDS011;61070;50.794;7.054;2023-07-09T13:34:16;9.82;;;3.95;;
72924;SDS011;61070;50.794;7.054;2023-07-09T13:36:43;10.32;;;4.55;;
72924;SDS011;61070;50.794;7.054;2023-07-09T13:39:09;10.02;;;4.35;;
72924;SDS011;61070;50.794;7.054;2023-07-09T13:41:35;10.82;;;3.97;;
72924;SDS011;61070;50.794;7.054;2023-07-09T13:44:01;7.55;;;3.55;;
72924;SDS011;61070;50.794;7.054;2023-07-09T13:46:26;5.95;;;3.72;;
72924;SDS011;61070;50.794;7.054;2023-07-09T13:48:51;10.93;;;3.83;;
72924;SDS011;61070;50.794;7.054;2023-07-09T13:51:18;7.37;;;4.00;;
72924;SDS011;61070;50.794;7.054;2023-07-09T13:53:44;8.43;;;4.28;;
72924;SDS011;61070;50.794;7.054;2023-07-09T13:56:10;6.78;;;3.80;;
72924;SDS011;61070;50.794;7.054;2023-07-09T13:58:35;10.13;;;4.27;;
72924;SDS011;61070;50.794;7.054;2023-07-09T14:01:05;8.87;;;4.53;;
72924;SDS011;61070;50.794;7.054;2023-07-09T14:03:32;10.50;;;4.38;;
72924;SDS011;61070;50.794;7.054;2023-07-09T14:05:58;17.33;;;5.20;;
72924;SDS011;61070;50.794;7.054;2023-07-09T14:08:23;9.32;;;4.35;;
72924;SDS011;61070;50.794;7.054;2023-07-09T14:10:49;6.83;;;4.10;;
72924;SDS011;61070;50.794;7.054;2023-07-09T14:13:15;8.35;;;4.82;;
72924;SDS011;61070;50.794;7.054;2023-07-09T14:15:41;9.25;;;4.10;;
72924;SDS011;61070;50.794;7.054;2023-07-09T14:18:11;9.55;;;4.65;;
72924;SDS011;61070;50.794;7.054;2023-07-09T14:20:38;7.65;;;4.50;;
72924;SDS011;61070;50.794;7.054;2023-07-09T14:23:04;8.88;;;4.65;;
72924;SDS011;61070;50.794;7.054;2023-07-09T14:25:29;13.13;;;4.30;;
72924;SDS011;61070;50.794;7.054;2023-07-09T14:27:54;7.47;;;4.30;;
72924;SDS011;61070;50.794;7.054;2023-07-09T14:30:20;12.17;;;4.50;;
72924;SDS011;61070;50.794;7.054;2023-07-09T14:32:47;11.70;;;4.68;;
72924;SDS011;61070;50.794;7.054;2023-07-09T14:35:22;15.02;;;4.72;;
72924;SDS011;61070;50.794;7.054;2023-07-09T14:37:48;11.85;;;4.55;;
72924;SDS011;61070;50.794;7.054;2023-07-09T14:40:16;21.15;;;5.97;;
72924;SDS011;61070;50.794;7.054;2023-07-09T14:42:42;16.60;;;4.13;;
72924;SDS011;61070;50.794;7.054;2023-07-09T14:45:15;10.18;;;4.75;;
72924;SDS011;61070;50.794;7.054;2023-07-09T14:47:42;10.00;;;4.75;;
72924;SDS011;61070;50.794;7.054;2023-07-09T14:50:07;12.50;;;5.03;;
72924;SDS011;61070;50.794;7.054;2023-07-09T14:52:34;13.18;;;4.63;;
72924;SDS011;61070;50.794;7.054;2023-07-09T14:55:00;8.02;;;4.32;;
72924;SDS011;61070;50.794;7.054;2023-07-09T14:57:26;17.30;;;4.18;;
72924;SDS011;61070;50.794;7.054;2023-07-09T14:59:53;17.23;;;4.95;;
72924;SDS011;61070;50.794;7.054;2023-07-09T15:02:30;15.85;;;5.07;;
72924;SDS011;61070;50.794;7.054;2023-07-09T15:05:00;12.20;;;5.45;;
72924;SDS011;61070;50.794;7.054;2023-07-09T15:07:26;11.43;;;5.32;;
72924;SDS011;61070;50.794;7.054;2023-07-09T15:09:55;9.77;;;4.78;;
72924;SDS011;61070;50.794;7.054;2023-07-09T15:12:26;13.00;;;5.28;;
72924;SDS011;61070;50.794;7.054;2023-07-09T15:15:18;9.43;;;4.82;;
72924;SDS011;61070;50.794;7.054;2023-07-09T15:17:40;9.15;;;4.90;;
72924;SDS011;61070;50.794;7.054;2023-07-09T15:20:11;7.85;;;4.85;;
72924;SDS011;61070;50.794;7.054;2023-07-09T15:22:39;8.27;;;4.50;;
72924;SDS011;61070;50.794;7.054;2023-07-09T15:25:08;9.98;;;5.22;;